createdAt,value
2022-10-04T00:00:37.360Z,11.95
2022-10-04T00:01:06.424Z,12.35
2022-10-04T00:01:45.252Z,11.85
2022-10-04T00:02:23.979Z,11.93
2022-10-04T00:02:47.471Z,11.73
2022-10-04T00:03:53.291Z,11.38
2022-10-04T00:04:18.290Z,11.90
2022-10-04T00:04:47.474Z,11.80
2022-10-04T00:05:16.122Z,11.68
2022-10-04T00:05:40.551Z,11.10
2022-10-04T00:06:03.699Z,11.38
2022-10-04T00:06:26.805Z,11.70
2022-10-04T00:07:13.520Z,11.35
2022-10-04T00:07:41.430Z,11.20
2022-10-04T00:08:21.247Z,11.50
2022-10-04T00:08:55.170Z,11.60
2022-10-04T00:09:23.391Z,10.98
2022-10-04T00:10:09.575Z,11.45
2022-10-04T00:10:33.535Z,11.55
2022-10-04T00:11:07.773Z,11.30
2022-10-04T00:11:37.417Z,10.95
2022-10-04T00:12:00.813Z,10.82
2022-10-04T00:12:29.937Z,10.90
2022-10-04T00:13:18.228Z,11.05
2022-10-04T00:13:41.363Z,11.20
2022-10-04T00:14:15.314Z,10.85
2022-10-04T00:14:39.566Z,10.85
2022-10-04T00:15:06.260Z,11.20
2022-10-04T00:15:39.986Z,11.63
2022-10-04T00:16:02.348Z,11.10
2022-10-04T00:16:37.911Z,10.80
2022-10-04T00:17:08.083Z,11.07
2022-10-04T00:17:35.434Z,11.05
2022-10-04T00:18:07.328Z,10.60
2022-10-04T00:18:32.870Z,10.82
2022-10-04T00:19:14.259Z,10.90
2022-10-04T00:19:45.546Z,11.05
2022-10-04T00:21:02.952Z,10.85
2022-10-04T00:21:24.847Z,10.35
2022-10-04T00:21:58.205Z,10.50
2022-10-04T00:22:27.601Z,10.73
2022-10-04T00:23:21.695Z,10.60
2022-10-04T00:23:45.605Z,10.10
2022-10-04T00:24:20.586Z,10.23
2022-10-04T00:25:17.392Z,10.50
2022-10-04T00:25:39.090Z,10.80
2022-10-04T00:26:03.195Z,10.43
2022-10-04T00:26:27.803Z,10.63
2022-10-04T00:26:49.556Z,10.52
2022-10-04T00:27:21.426Z,10.10
2022-10-04T00:28:20.256Z,10.10
2022-10-04T00:28:46.365Z,10.38
2022-10-04T00:29:38.370Z,10.13
2022-10-04T00:30:02.543Z,10.35
2022-10-04T00:30:24.534Z,9.90
2022-10-04T00:31:06.255Z,10.10
2022-10-04T00:31:29.189Z,10.32
2022-10-04T00:32:12.672Z,10.13
2022-10-04T00:32:40.389Z,10.63
2022-10-04T00:33:04.112Z,10.00
2022-10-04T00:33:46.051Z,10.10
2022-10-04T00:34:08.238Z,10.23
2022-10-04T00:34:32.836Z,9.90
2022-10-04T00:34:55.966Z,10.23
2022-10-04T00:35:30.026Z,10.18
2022-10-04T00:35:52.572Z,9.75
2022-10-04T00:36:29.037Z,9.82
2022-10-04T00:36:57.719Z,9.80
2022-10-04T00:37:25.401Z,9.88
2022-10-04T00:37:58.290Z,9.48
2022-10-04T00:38:27.985Z,9.68
2022-10-04T00:39:07.458Z,9.85
2022-10-04T00:39:32.254Z,9.52
2022-10-04T00:40:20.157Z,9.63
2022-10-04T00:40:57.289Z,9.35
2022-10-04T00:41:21.238Z,9.75
2022-10-04T00:41:49.157Z,9.85
2022-10-04T00:42:36.277Z,9.60
2022-10-04T00:43:07.101Z,8.95
2022-10-04T00:43:44.538Z,9.45
2022-10-04T00:44:15.343Z,9.45
2022-10-04T00:44:45.653Z,9.50
2022-10-04T00:45:19.236Z,9.63
2022-10-04T00:46:01.203Z,9.60
2022-10-04T00:46:27.559Z,9.50
2022-10-04T00:46:50.858Z,9.40
2022-10-04T00:47:21.169Z,9.35
2022-10-04T00:47:48.596Z,9.93
2022-10-04T00:48:34.970Z,9.18
2022-10-04T00:49:04.061Z,9.00
2022-10-04T00:49:32.185Z,9.15
2022-10-04T00:49:59.133Z,8.93
2022-10-04T00:50:30.070Z,8.93
2022-10-04T00:51:04.148Z,8.95
2022-10-04T00:51:34.348Z,8.80
2022-10-04T00:52:29.645Z,9.00
2022-10-04T00:52:59.848Z,9.35
2022-10-04T00:53:44.996Z,8.98
2022-10-04T00:54:30.975Z,9.50
2022-10-04T00:54:59.449Z,9.48
2022-10-04T00:55:34.488Z,9.32
2022-10-04T00:56:01.339Z,9.50
2022-10-04T00:56:41.180Z,10.07
2022-10-04T00:57:07.556Z,9.25
2022-10-04T00:57:39.164Z,9.32
2022-10-04T00:58:04.647Z,9.18
2022-10-04T00:58:46.670Z,9.75
2022-10-04T00:59:15.467Z,9.15
2022-10-04T00:59:46.587Z,9.20
2022-10-04T01:00:16.753Z,8.90
2022-10-04T01:00:40.046Z,9.73
2022-10-04T01:01:03.701Z,9.38
2022-10-04T01:01:29.258Z,8.75
2022-10-04T01:02:02.646Z,9.43
2022-10-04T01:02:31.782Z,9.40
2022-10-04T01:03:01.929Z,9.30
2022-10-04T01:03:40.464Z,9.23
2022-10-04T01:04:04.716Z,9.57
2022-10-04T01:04:39.763Z,8.63
2022-10-04T01:05:04.869Z,9.30
2022-10-04T01:05:41.495Z,9.02
2022-10-04T01:06:06.674Z,9.50
2022-10-04T01:06:29.455Z,8.82
2022-10-04T01:06:52.143Z,9.18
2022-10-04T01:07:17.803Z,8.77
2022-10-04T01:07:44.950Z,8.68
2022-10-04T01:08:09.793Z,8.95
2022-10-04T01:08:33.559Z,8.70
2022-10-04T01:09:01.084Z,8.60
2022-10-04T01:09:23.605Z,8.43
2022-10-04T01:09:52.267Z,9.00
2022-10-04T01:10:34.374Z,8.57
2022-10-04T01:11:03.416Z,9.07
2022-10-04T01:11:31.196Z,9.25
2022-10-04T01:12:05.706Z,8.45
2022-10-04T01:13:12.020Z,8.57
2022-10-04T01:13:41.168Z,7.90
2022-10-04T01:14:11.433Z,8.00
2022-10-04T01:14:53.156Z,8.38
2022-10-04T01:15:38.864Z,8.30
2022-10-04T01:16:09.985Z,7.90
2022-10-04T01:16:36.593Z,8.55
2022-10-04T01:16:58.450Z,8.25
2022-10-04T01:17:20.137Z,8.05
2022-10-04T01:17:41.895Z,8.20
2022-10-04T01:18:16.257Z,8.10
2022-10-04T01:18:38.718Z,7.93
2022-10-04T01:19:28.619Z,8.00
2022-10-04T01:19:53.385Z,8.00
2022-10-04T01:20:50.443Z,7.88
2022-10-04T01:21:21.510Z,7.50
2022-10-04T01:21:43.619Z,7.43
2022-10-04T01:22:05.451Z,7.20
2022-10-04T01:22:41.644Z,6.82
2022-10-04T01:23:04.229Z,6.88
2022-10-04T01:23:47.144Z,7.00
2022-10-04T01:24:08.896Z,6.95
2022-10-04T01:24:36.281Z,6.93
2022-10-04T01:24:57.970Z,6.60
2022-10-04T01:25:43.874Z,7.20
2022-10-04T01:26:30.127Z,6.97
2022-10-04T01:26:52.001Z,7.05
2022-10-04T01:27:34.377Z,7.05
2022-10-04T01:27:56.203Z,7.18
2022-10-04T01:28:18.155Z,7.30
2022-10-04T01:28:39.999Z,7.30
2022-10-04T01:29:14.082Z,7.20
2022-10-04T01:29:35.848Z,7.15
2022-10-04T01:29:58.395Z,7.00
2022-10-04T01:30:20.326Z,7.05
2022-10-04T01:30:43.448Z,7.32
2022-10-04T01:31:05.490Z,7.70
2022-10-04T01:31:33.045Z,7.35
2022-10-04T01:31:57.837Z,7.32
2022-10-04T01:32:19.613Z,7.03
2022-10-04T01:32:41.693Z,7.57
2022-10-04T01:33:06.852Z,6.95
2022-10-04T01:33:30.073Z,6.85
2022-10-04T01:33:52.344Z,7.00
2022-10-04T01:34:16.348Z,7.38
2022-10-04T01:34:41.037Z,7.32
2022-10-04T01:35:03.106Z,7.03
2022-10-04T01:35:25.373Z,6.82
2022-10-04T01:35:48.227Z,7.07
2022-10-04T01:36:10.109Z,6.88
2022-10-04T01:36:33.756Z,6.72
2022-10-04T01:36:58.257Z,7.15
2022-10-04T01:37:20.202Z,6.45
2022-10-04T01:37:41.988Z,6.82
2022-10-04T01:38:07.616Z,6.70
2022-10-04T01:38:29.365Z,6.30
2022-10-04T01:38:51.839Z,6.22
2022-10-04T01:39:15.174Z,5.97
2022-10-04T01:39:36.958Z,6.18
2022-10-04T01:39:58.899Z,6.35
2022-10-04T01:40:20.731Z,6.28
2022-10-04T01:40:49.503Z,6.07
2022-10-04T01:41:14.893Z,6.30
2022-10-04T01:42:05.290Z,5.97
2022-10-04T01:42:30.934Z,5.60
2022-10-04T01:42:57.468Z,5.55
2022-10-04T01:43:28.107Z,5.20
2022-10-04T01:43:53.468Z,5.22
2022-10-04T01:44:30.078Z,4.85
2022-10-04T01:44:58.010Z,5.07
2022-10-04T01:45:28.854Z,4.90
2022-10-04T01:45:56.491Z,4.50
2022-10-04T01:46:26.018Z,4.60
2022-10-04T01:46:50.179Z,4.45
2022-10-04T01:47:41.251Z,4.50
2022-10-04T01:48:09.119Z,4.68
2022-10-04T01:48:36.115Z,4.38
2022-10-04T01:49:00.871Z,4.50
2022-10-04T01:49:30.226Z,4.60
2022-10-04T01:49:55.694Z,4.40
2022-10-04T01:50:28.796Z,3.88
2022-10-04T01:51:03.183Z,4.30
2022-10-04T01:51:30.223Z,4.10
2022-10-04T01:51:58.888Z,3.95
2022-10-04T01:52:29.753Z,4.03
2022-10-04T01:52:56.293Z,3.97
2022-10-04T01:53:28.630Z,4.20
2022-10-04T01:54:01.777Z,3.90
2022-10-04T01:54:37.329Z,3.80
2022-10-04T01:55:02.929Z,3.70
2022-10-04T01:55:29.271Z,3.47
2022-10-04T01:55:54.682Z,3.63
2022-10-04T01:56:22.048Z,3.25
2022-10-04T01:56:50.707Z,2.90
2022-10-04T01:57:23.574Z,3.30
2022-10-04T01:57:50.450Z,3.00
2022-10-04T01:58:23.745Z,3.00
2022-10-04T01:58:47.907Z,3.10
2022-10-04T01:59:17.771Z,3.10
2022-10-04T02:00:05.636Z,3.00
2022-10-04T02:00:29.226Z,2.60
2022-10-04T02:01:01.517Z,2.90
2022-10-04T02:01:31.233Z,3.10
2022-10-04T02:02:06.458Z,2.78
2022-10-04T02:03:00.084Z,2.67
2022-10-04T02:03:30.929Z,2.70
2022-10-04T02:03:58.538Z,2.70
2022-10-04T02:04:24.718Z,2.85
2022-10-04T02:04:53.429Z,2.70
2022-10-04T02:05:21.057Z,2.55
2022-10-04T02:05:49.805Z,2.53
2022-10-04T02:06:14.030Z,2.50
2022-10-04T02:06:38.862Z,2.50
2022-10-04T02:07:03.013Z,2.40
2022-10-04T02:07:28.345Z,2.40
2022-10-04T02:07:51.130Z,2.50
2022-10-04T02:08:16.590Z,2.90
2022-10-04T02:08:44.685Z,2.47
2022-10-04T02:09:17.390Z,2.30
2022-10-04T02:09:43.698Z,2.60
2022-10-04T02:10:10.789Z,2.50
2022-10-04T02:10:38.686Z,2.60
2022-10-04T02:11:06.301Z,2.47
2022-10-04T02:11:31.012Z,2.40
2022-10-04T02:11:54.105Z,2.50
2022-10-04T02:12:18.481Z,2.67
2022-10-04T02:12:47.444Z,2.60
2022-10-04T02:13:15.694Z,2.80
2022-10-04T02:13:40.134Z,2.60
2022-10-04T02:14:02.067Z,2.70
2022-10-04T02:14:28.426Z,2.40
2022-10-04T02:14:53.184Z,2.65
2022-10-04T02:15:16.136Z,2.78
2022-10-04T02:15:40.049Z,2.78
2022-10-04T02:16:03.198Z,2.85
2022-10-04T02:16:26.513Z,2.80
2022-10-04T02:16:52.227Z,2.80
2022-10-04T02:17:15.222Z,2.80
2022-10-04T02:17:42.864Z,3.03
2022-10-04T02:18:17.172Z,3.10
2022-10-04T02:18:40.272Z,3.15
2022-10-04T02:19:03.500Z,2.90
2022-10-04T02:19:34.450Z,3.20
2022-10-04T02:19:57.668Z,2.80
2022-10-04T02:20:26.052Z,3.20
2022-10-04T02:20:49.632Z,3.30
2022-10-04T02:21:13.051Z,3.30
2022-10-04T02:21:36.784Z,3.30
2022-10-04T02:21:59.165Z,3.60
2022-10-04T02:22:24.088Z,3.70
2022-10-04T02:22:49.715Z,3.58
2022-10-04T02:23:12.660Z,3.20
2022-10-04T02:23:36.969Z,3.65
2022-10-04T02:23:59.032Z,3.50
2022-10-04T02:24:21.609Z,3.53
2022-10-04T02:24:46.583Z,3.70
2022-10-04T02:25:09.242Z,3.45
2022-10-04T02:25:31.388Z,3.70
2022-10-04T02:25:53.219Z,3.70
2022-10-04T02:26:15.018Z,3.58
2022-10-04T02:26:36.770Z,3.58
2022-10-04T02:26:58.687Z,3.80
2022-10-04T02:27:26.067Z,3.78
2022-10-04T02:27:48.380Z,3.97
2022-10-04T02:28:12.459Z,3.47
2022-10-04T02:28:35.622Z,3.40
2022-10-04T02:28:57.674Z,3.58
2022-10-04T02:29:22.494Z,3.60
2022-10-04T02:29:44.455Z,3.85
2022-10-04T02:30:10.260Z,3.92
2022-10-04T02:30:40.337Z,4.00
2022-10-04T02:31:22.151Z,3.70
2022-10-04T02:32:03.408Z,3.85
2022-10-04T02:32:43.815Z,3.85
2022-10-04T02:33:06.836Z,3.80
2022-10-04T02:33:28.663Z,3.70
2022-10-04T02:33:52.785Z,4.00
2022-10-04T02:34:17.235Z,4.10
2022-10-04T02:34:40.780Z,3.97
2022-10-04T02:35:04.127Z,4.40
2022-10-04T02:35:35.713Z,4.22
2022-10-04T02:35:58.777Z,4.03
2022-10-04T02:36:26.118Z,4.57
2022-10-04T02:36:50.411Z,4.00
2022-10-04T02:37:13.230Z,3.83
2022-10-04T02:37:35.306Z,4.57
2022-10-04T02:38:11.090Z,4.35
2022-10-04T02:38:44.057Z,4.07
2022-10-04T02:39:38.248Z,4.10
2022-10-04T02:40:13.926Z,4.43
2022-10-04T02:40:43.477Z,4.60
2022-10-04T02:41:29.972Z,4.38
2022-10-04T02:41:56.344Z,4.32
2022-10-04T02:42:41.347Z,4.30
2022-10-04T02:43:27.332Z,4.35
2022-10-04T02:43:58.193Z,4.50
2022-10-04T02:44:30.728Z,4.30
2022-10-04T02:45:00.718Z,4.60
2022-10-04T02:45:48.027Z,4.70
2022-10-04T02:46:17.865Z,4.40
2022-10-04T02:47:05.683Z,4.38
2022-10-04T02:47:34.892Z,4.53
2022-10-04T02:48:04.611Z,4.57
2022-10-04T02:48:39.295Z,5.15
2022-10-04T02:49:07.456Z,4.88
2022-10-04T02:49:41.918Z,4.70
2022-10-04T02:50:18.169Z,4.50
2022-10-04T02:50:48.440Z,5.30
2022-10-04T02:51:52.255Z,5.32
2022-10-04T02:52:20.058Z,4.97
2022-10-04T02:52:50.748Z,5.03
2022-10-04T02:53:18.735Z,4.55
2022-10-04T02:53:51.654Z,4.93
2022-10-04T02:54:30.537Z,5.32
2022-10-04T02:55:04.312Z,4.80
2022-10-04T02:55:30.292Z,5.40
2022-10-04T02:55:52.798Z,5.30
2022-10-04T02:56:15.189Z,4.88
2022-10-04T02:56:37.932Z,5.00
2022-10-04T02:57:01.404Z,4.80
2022-10-04T02:57:24.204Z,4.80
2022-10-04T02:57:46.238Z,4.85
2022-10-04T02:58:11.503Z,5.22
2022-10-04T02:58:37.546Z,5.13
2022-10-04T02:59:04.636Z,4.85
2022-10-04T02:59:27.735Z,4.90
2022-10-04T02:59:51.343Z,4.85
2022-10-04T03:00:15.812Z,4.93
2022-10-04T03:00:51.209Z,5.00
2022-10-04T03:01:25.574Z,5.15
2022-10-04T03:02:01.707Z,5.30
2022-10-04T03:02:29.927Z,5.20
2022-10-04T03:03:25.120Z,5.25
2022-10-04T03:03:47.853Z,5.75
2022-10-04T03:04:15.034Z,5.63
2022-10-04T03:04:40.689Z,5.55
2022-10-04T03:05:09.453Z,4.97
2022-10-04T03:05:31.192Z,5.22
2022-10-04T03:06:14.099Z,5.32
2022-10-04T03:06:35.915Z,5.80
2022-10-04T03:07:01.699Z,5.65
2022-10-04T03:07:24.230Z,5.30
2022-10-04T03:07:46.591Z,5.68
2022-10-04T03:08:08.541Z,5.35
2022-10-04T03:08:43.865Z,5.38
2022-10-04T03:09:06.283Z,5.55
2022-10-04T03:09:29.999Z,5.60
2022-10-04T03:09:52.637Z,5.78
2022-10-04T03:10:15.192Z,5.57
2022-10-04T03:10:36.979Z,5.63
2022-10-04T03:11:01.121Z,5.45
2022-10-04T03:11:25.076Z,5.63
2022-10-04T03:11:48.228Z,5.85
2022-10-04T03:12:12.793Z,5.82
2022-10-04T03:12:35.056Z,5.95
2022-10-04T03:12:57.361Z,6.13
2022-10-04T03:13:21.553Z,5.80
2022-10-04T03:13:47.577Z,6.10
2022-10-04T03:14:26.371Z,6.07
2022-10-04T03:14:48.276Z,6.22
2022-10-04T03:15:13.194Z,6.18
2022-10-04T03:15:35.105Z,5.80
2022-10-04T03:15:57.458Z,6.13
2022-10-04T03:16:19.961Z,6.13
2022-10-04T03:16:45.448Z,5.95
2022-10-04T03:17:08.064Z,5.80
2022-10-04T03:17:30.665Z,6.05
2022-10-04T03:17:52.658Z,6.20
2022-10-04T03:18:15.412Z,6.00
2022-10-04T03:18:37.927Z,6.13
2022-10-04T03:19:00.660Z,6.00
2022-10-04T03:19:24.876Z,5.95
2022-10-04T03:19:50.041Z,6.05
2022-10-04T03:20:16.198Z,6.00
2022-10-04T03:20:40.466Z,5.82
2022-10-04T03:21:07.320Z,5.55
2022-10-04T03:21:30.801Z,5.90
2022-10-04T03:21:57.136Z,6.15
2022-10-04T03:22:19.317Z,5.75
2022-10-04T03:22:46.916Z,6.00
2022-10-04T03:23:11.795Z,5.82
2022-10-04T03:23:34.347Z,6.43
2022-10-04T03:23:56.601Z,6.20
2022-10-04T03:24:23.192Z,5.65
2022-10-04T03:24:53.416Z,5.80
2022-10-04T03:25:21.742Z,5.80
2022-10-04T03:26:04.436Z,5.47
2022-10-04T03:26:42.373Z,5.80
2022-10-04T03:27:07.782Z,5.85
2022-10-04T03:27:34.056Z,5.80
2022-10-04T03:28:02.063Z,5.90
2022-10-04T03:28:24.005Z,5.60
2022-10-04T03:28:46.232Z,5.90
2022-10-04T03:29:10.410Z,5.85
2022-10-04T03:29:34.038Z,6.35
2022-10-04T03:29:59.140Z,5.97
2022-10-04T03:30:21.176Z,5.90
2022-10-04T03:30:45.563Z,6.20
2022-10-04T03:31:07.534Z,5.53
2022-10-04T03:31:30.005Z,5.55
2022-10-04T03:32:01.722Z,5.95
2022-10-04T03:32:24.144Z,5.82
2022-10-04T03:32:47.352Z,5.80
2022-10-04T03:33:12.640Z,5.60
2022-10-04T03:33:35.773Z,5.50
2022-10-04T03:33:58.660Z,5.80
2022-10-04T03:34:24.128Z,5.70
2022-10-04T03:35:05.498Z,5.53
2022-10-04T03:35:35.788Z,5.70
2022-10-04T03:36:00.887Z,5.90
2022-10-04T03:36:24.774Z,5.70
2022-10-04T03:36:49.361Z,5.97
2022-10-04T03:37:18.435Z,5.57
2022-10-04T03:37:40.949Z,5.72
2022-10-04T03:38:09.118Z,5.90
2022-10-04T03:38:35.688Z,5.55
2022-10-04T03:38:58.691Z,5.85
2022-10-04T03:39:29.290Z,6.15
2022-10-04T03:39:54.052Z,5.88
2022-10-04T03:40:15.903Z,6.35
2022-10-04T03:40:45.195Z,6.07
2022-10-04T03:41:13.002Z,5.72
2022-10-04T03:41:39.891Z,5.57
2022-10-04T03:42:07.950Z,5.80
2022-10-04T03:42:35.953Z,5.35
2022-10-04T03:43:00.530Z,5.72
2022-10-04T03:43:26.541Z,5.75
2022-10-04T03:43:50.270Z,5.65
2022-10-04T03:44:16.898Z,5.80
2022-10-04T03:44:39.630Z,5.80
2022-10-04T03:45:06.557Z,5.55
2022-10-04T03:45:29.451Z,6.05
2022-10-04T03:45:52.406Z,5.53
2022-10-04T03:46:15.040Z,5.40
2022-10-04T03:46:37.939Z,5.70
2022-10-04T03:47:00.639Z,5.60
2022-10-04T03:47:28.018Z,5.60
2022-10-04T03:47:53.218Z,5.80
2022-10-04T03:48:25.928Z,5.97
2022-10-04T03:48:50.967Z,6.05
2022-10-04T03:49:17.696Z,6.00
2022-10-04T03:49:41.020Z,6.00
2022-10-04T03:50:12.915Z,5.80
2022-10-04T03:50:42.638Z,5.22
2022-10-04T03:51:07.249Z,5.43
2022-10-04T03:51:29.487Z,5.55
2022-10-04T03:51:52.143Z,5.50
2022-10-04T03:52:22.083Z,5.95
2022-10-04T03:52:55.762Z,5.55
2022-10-04T03:53:29.196Z,5.50
2022-10-04T03:53:54.592Z,5.70
2022-10-04T03:54:23.041Z,5.65
2022-10-04T03:54:45.438Z,5.45
2022-10-04T03:55:08.375Z,5.60
2022-10-04T03:55:38.765Z,5.82
2022-10-04T03:56:04.423Z,5.50
2022-10-04T03:56:34.628Z,5.78
2022-10-04T03:56:58.322Z,5.65
2022-10-04T03:57:20.144Z,5.63
2022-10-04T03:57:42.181Z,5.40
2022-10-04T03:58:05.356Z,5.68
2022-10-04T03:58:30.429Z,5.85
2022-10-04T03:58:53.900Z,5.50
2022-10-04T03:59:18.269Z,5.47
2022-10-04T03:59:40.319Z,5.50
2022-10-04T04:00:05.016Z,5.40
2022-10-04T04:00:27.585Z,5.13
2022-10-04T04:01:34.638Z,5.20
2022-10-04T04:02:17.816Z,5.45
2022-10-04T04:03:09.553Z,5.70
2022-10-04T04:03:41.807Z,6.05
2022-10-04T04:04:08.999Z,5.60
2022-10-04T04:04:48.374Z,5.30
2022-10-04T04:05:32.919Z,5.30
2022-10-04T04:05:59.479Z,5.32
2022-10-04T04:06:22.852Z,5.45
2022-10-04T04:06:59.368Z,5.63
2022-10-04T04:07:51.271Z,5.30
2022-10-04T04:08:21.656Z,5.20
2022-10-04T04:08:46.428Z,5.28
2022-10-04T04:09:14.400Z,5.30
2022-10-04T04:09:45.646Z,5.28
2022-10-04T04:10:21.230Z,5.40
2022-10-04T04:10:48.693Z,5.57
2022-10-04T04:11:21.553Z,5.60
2022-10-04T04:11:45.800Z,5.45
2022-10-04T04:12:15.362Z,4.97
2022-10-04T04:12:43.954Z,5.25
2022-10-04T04:13:15.584Z,5.07
2022-10-04T04:14:09.351Z,5.53
2022-10-04T04:14:31.239Z,5.32
2022-10-04T04:14:55.499Z,5.50
2022-10-04T04:15:18.054Z,5.25
2022-10-04T04:15:45.598Z,5.03
2022-10-04T04:16:09.510Z,4.88
2022-10-04T04:16:31.624Z,5.20
2022-10-04T04:17:35.885Z,5.60
2022-10-04T04:18:04.389Z,5.10
2022-10-04T04:18:30.571Z,4.80
2022-10-04T04:18:54.624Z,5.22
2022-10-04T04:19:20.717Z,4.68
2022-10-04T04:19:43.236Z,5.10
2022-10-04T04:20:12.895Z,5.00
2022-10-04T04:20:38.066Z,4.70
2022-10-04T04:21:02.416Z,4.90
2022-10-04T04:21:27.188Z,4.90
2022-10-04T04:21:49.829Z,4.80
2022-10-04T04:22:19.766Z,4.78
2022-10-04T04:22:46.749Z,4.78
2022-10-04T04:23:17.909Z,4.70
2022-10-04T04:23:43.987Z,4.75
2022-10-04T04:24:14.852Z,4.93
2022-10-04T04:24:36.721Z,4.55
2022-10-04T04:25:01.560Z,4.68
2022-10-04T04:25:25.695Z,4.88
2022-10-04T04:25:51.755Z,4.90
2022-10-04T04:26:39.809Z,4.60
2022-10-04T04:27:05.328Z,4.88
2022-10-04T04:27:29.895Z,4.97
2022-10-04T04:27:56.387Z,4.22
2022-10-04T04:28:21.163Z,4.47
2022-10-04T04:28:49.029Z,4.63
2022-10-04T04:29:48.381Z,4.28
2022-10-04T04:30:17.330Z,4.43
2022-10-04T04:30:44.149Z,4.43
2022-10-04T04:31:10.216Z,4.20
2022-10-04T04:31:54.494Z,4.28
2022-10-04T04:32:36.464Z,4.40
2022-10-04T04:33:05.772Z,4.30
2022-10-04T04:33:34.414Z,4.30
2022-10-04T04:34:00.732Z,4.30
2022-10-04T04:34:30.150Z,4.07
2022-10-04T04:34:57.107Z,4.50
2022-10-04T04:35:33.415Z,4.15
2022-10-04T04:35:59.325Z,4.38
2022-10-04T04:36:21.097Z,4.38
2022-10-04T04:36:42.904Z,4.22
2022-10-04T04:37:05.200Z,4.05
2022-10-04T04:37:26.933Z,4.15
2022-10-04T04:38:04.399Z,4.22
2022-10-04T04:38:26.549Z,4.20
2022-10-04T04:39:06.600Z,4.53
2022-10-04T04:39:44.914Z,4.15
2022-10-04T04:40:34.042Z,4.18
2022-10-04T04:40:55.971Z,4.45
2022-10-04T04:41:17.973Z,4.47
2022-10-04T04:41:43.761Z,4.00
2022-10-04T04:42:23.640Z,4.40
2022-10-04T04:42:47.187Z,4.63
2022-10-04T04:43:14.576Z,4.45
2022-10-04T04:43:36.396Z,4.40
2022-10-04T04:43:58.699Z,4.40
2022-10-04T04:44:27.575Z,4.57
2022-10-04T04:45:00.777Z,4.50
2022-10-04T04:45:29.614Z,4.88
2022-10-04T04:46:14.903Z,4.30
2022-10-04T04:46:34.311Z,4.57
2022-10-04T04:46:57.467Z,4.32
2022-10-04T04:47:50.544Z,4.57
2022-10-04T04:48:16.267Z,4.10
2022-10-04T04:48:38.118Z,4.40
2022-10-04T04:49:05.313Z,4.47
2022-10-04T04:49:31.402Z,4.40
2022-10-04T04:49:54.977Z,4.70
2022-10-04T04:50:30.673Z,4.45
2022-10-04T04:50:58.870Z,4.63
2022-10-04T04:51:24.925Z,4.20
2022-10-04T04:51:51.340Z,4.25
2022-10-04T04:52:17.998Z,4.05
2022-10-04T04:52:42.647Z,4.18
2022-10-04T04:53:22.485Z,4.15
2022-10-04T04:53:44.271Z,4.20
2022-10-04T04:54:07.523Z,4.35
2022-10-04T04:54:29.328Z,4.38
2022-10-04T04:54:51.155Z,4.35
2022-10-04T04:56:02.168Z,4.10
2022-10-04T04:56:30.640Z,4.10
2022-10-04T04:56:54.197Z,4.35
2022-10-04T04:57:18.980Z,4.10
2022-10-04T04:57:44.886Z,4.50
2022-10-04T04:58:08.607Z,4.93
2022-10-04T04:58:36.655Z,4.68
2022-10-04T04:59:02.929Z,3.92
2022-10-04T04:59:28.056Z,4.32
2022-10-04T04:59:54.861Z,4.63
2022-10-04T05:00:20.249Z,4.72
2022-10-04T05:00:42.111Z,4.55
2022-10-04T05:01:09.470Z,4.07
2022-10-04T05:01:35.637Z,4.15
2022-10-04T05:01:57.490Z,4.25
2022-10-04T05:02:31.087Z,4.22
2022-10-04T05:02:59.054Z,4.10
2022-10-04T05:03:21.712Z,4.13
2022-10-04T05:03:43.611Z,4.38
2022-10-04T05:04:13.691Z,4.20
2022-10-04T05:04:36.321Z,3.95
2022-10-04T05:05:23.210Z,4.50
2022-10-04T05:05:48.032Z,3.80
2022-10-04T05:06:30.405Z,4.22
2022-10-04T05:07:17.805Z,4.15
2022-10-04T05:07:42.429Z,3.90
2022-10-04T05:08:15.199Z,4.03
2022-10-04T05:08:41.445Z,3.80
2022-10-04T05:09:05.506Z,3.92
2022-10-04T05:09:35.667Z,3.90
2022-10-04T05:09:57.350Z,3.88
2022-10-04T05:10:22.644Z,3.50
2022-10-04T05:11:01.134Z,4.00
2022-10-04T05:11:29.597Z,4.10
2022-10-04T05:11:53.910Z,3.88
2022-10-04T05:12:15.561Z,3.88
2022-10-04T05:12:37.619Z,3.75
2022-10-04T05:13:04.307Z,3.58
2022-10-04T05:13:51.063Z,4.00
2022-10-04T05:14:15.549Z,3.60
2022-10-04T05:14:45.903Z,3.67
2022-10-04T05:22:14.782Z,3.30
2022-10-04T05:22:40.362Z,3.15
2022-10-04T05:25:00.118Z,2.53
2022-10-04T05:25:49.501Z,3.00
2022-10-04T05:26:12.760Z,2.90
2022-10-04T05:26:17.166Z,2.92
2022-10-04T05:26:34.596Z,2.83
2022-10-04T05:27:05.871Z,2.80
2022-10-04T05:27:39.318Z,2.78
2022-10-04T05:28:01.793Z,2.90
2022-10-04T05:28:23.988Z,2.90
2022-10-04T05:28:45.925Z,2.88
2022-10-04T05:29:15.802Z,2.78
2022-10-04T05:29:50.732Z,2.35
2022-10-04T05:30:24.381Z,2.78
2022-10-04T05:31:38.964Z,2.88
2022-10-04T05:32:25.683Z,2.72
2022-10-04T05:33:07.113Z,2.70
2022-10-04T05:33:46.173Z,2.67
2022-10-04T05:34:19.613Z,2.60
2022-10-04T05:34:45.507Z,2.70
2022-10-04T05:35:21.759Z,3.00
2022-10-04T05:36:39.488Z,2.72
2022-10-04T05:37:20.479Z,2.60
2022-10-04T05:37:59.026Z,2.70
2022-10-04T05:38:38.976Z,2.70
2022-10-04T05:39:21.601Z,2.90
2022-10-04T05:39:58.718Z,2.35
2022-10-04T05:40:53.723Z,2.63
2022-10-04T05:41:52.473Z,2.40
2022-10-04T05:42:37.746Z,2.40
2022-10-04T05:43:00.058Z,2.38
2022-10-04T05:43:28.077Z,2.40
2022-10-04T05:43:51.295Z,2.30
2022-10-04T05:44:31.775Z,2.58
2022-10-04T05:44:56.750Z,2.20
2022-10-04T05:45:36.561Z,2.47
2022-10-04T05:46:28.358Z,2.63
2022-10-04T05:46:51.077Z,2.30
2022-10-04T05:47:15.339Z,2.10
2022-10-04T05:47:40.980Z,2.23
2022-10-04T05:48:08.959Z,2.47
2022-10-04T05:48:30.811Z,2.40
2022-10-04T05:49:02.443Z,2.30
2022-10-04T05:49:28.547Z,2.28
2022-10-04T05:49:55.974Z,2.25
2022-10-04T05:50:34.238Z,2.28
2022-10-04T05:50:56.173Z,2.20
2022-10-04T05:51:30.028Z,2.30
2022-10-04T05:52:00.048Z,2.30
2022-10-04T05:52:36.241Z,2.40
2022-10-04T05:53:35.718Z,2.38
2022-10-04T05:54:01.286Z,2.20
2022-10-04T05:54:26.453Z,2.17
2022-10-04T05:55:16.160Z,2.10
2022-10-04T05:55:53.070Z,2.00
2022-10-04T05:56:41.509Z,2.10
2022-10-04T05:57:21.912Z,2.20
2022-10-04T05:57:50.887Z,2.25
2022-10-04T05:58:53.908Z,2.10
2022-10-04T05:59:34.433Z,1.98
2022-10-04T06:00:08.469Z,2.20
2022-10-04T06:01:15.727Z,2.33
2022-10-04T06:01:56.401Z,2.35
2022-10-04T06:02:25.266Z,2.53
2022-10-04T06:02:56.006Z,2.22
2022-10-04T06:03:27.919Z,2.20
2022-10-04T06:04:16.619Z,2.40
2022-10-04T06:04:43.975Z,2.00
2022-10-04T06:05:19.062Z,2.30
2022-10-04T06:06:01.689Z,2.13
2022-10-04T06:06:33.441Z,2.15
2022-10-04T06:07:03.324Z,2.20
2022-10-04T06:08:08.026Z,2.28
2022-10-04T06:08:41.688Z,2.50
2022-10-04T06:09:24.417Z,2.50
2022-10-04T06:10:23.813Z,2.67
2022-10-04T06:11:16.334Z,2.30
2022-10-04T06:11:55.738Z,2.55
2022-10-04T06:12:30.284Z,2.40
2022-10-04T06:13:10.605Z,2.45
2022-10-04T06:14:05.708Z,2.65
2022-10-04T06:14:54.891Z,2.58
2022-10-04T06:15:25.706Z,2.53
2022-10-04T06:16:20.272Z,2.65
2022-10-04T06:17:10.010Z,2.67
2022-10-04T06:17:40.705Z,2.65
2022-10-04T06:18:27.215Z,2.65
2022-10-04T06:19:03.825Z,2.70
2022-10-04T06:19:41.892Z,2.80
2022-10-04T06:20:17.969Z,2.78
2022-10-04T06:20:55.079Z,2.80
2022-10-04T06:21:20.448Z,2.80
2022-10-04T06:22:13.506Z,3.07
2022-10-04T06:22:56.456Z,2.60
2022-10-04T06:23:21.158Z,2.93
2022-10-04T06:24:01.579Z,2.60
2022-10-04T06:24:29.964Z,2.38
2022-10-04T06:25:12.798Z,2.80
2022-10-04T06:25:50.393Z,2.53
2022-10-04T06:26:18.903Z,2.70
2022-10-04T06:27:09.200Z,2.40
2022-10-04T06:27:58.056Z,2.60
2022-10-04T06:28:27.193Z,2.60
2022-10-04T06:29:06.357Z,2.75
2022-10-04T06:29:33.188Z,2.80
2022-10-04T06:30:18.518Z,2.60
2022-10-04T06:31:03.491Z,2.70
2022-10-04T06:31:44.897Z,2.42
2022-10-04T06:32:35.856Z,2.80
2022-10-04T06:33:03.538Z,2.70
2022-10-04T06:33:39.628Z,2.85
2022-10-04T06:34:12.387Z,2.70
2022-10-04T06:35:00.780Z,2.75
2022-10-04T06:35:50.144Z,2.60
2022-10-04T06:37:06.014Z,2.78
2022-10-04T06:37:51.315Z,3.50
2022-10-04T06:38:36.668Z,2.72
2022-10-04T06:39:32.431Z,3.30
2022-10-04T06:40:16.957Z,3.47
2022-10-04T06:40:50.229Z,3.30
2022-10-04T06:41:18.390Z,3.08
2022-10-04T06:41:49.235Z,3.25
2022-10-04T06:42:35.661Z,3.10
2022-10-04T06:43:18.944Z,3.33
2022-10-04T06:44:03.331Z,3.92
2022-10-04T06:44:48.954Z,3.85
2022-10-04T06:45:11.114Z,4.13
2022-10-04T06:45:38.961Z,3.83
2022-10-04T06:46:03.736Z,4.03
2022-10-04T06:46:46.235Z,3.75
2022-10-04T06:47:20.167Z,3.97
2022-10-04T06:48:02.320Z,3.50
2022-10-04T06:48:40.467Z,4.20
2022-10-04T06:49:05.267Z,4.07
2022-10-04T06:49:41.276Z,4.05
2022-10-04T06:50:28.529Z,4.20
2022-10-04T06:51:00.659Z,4.32
2022-10-04T06:51:51.769Z,4.43
2022-10-04T06:52:34.650Z,4.30
2022-10-04T06:53:16.640Z,4.35
2022-10-04T06:54:10.975Z,4.30
2022-10-04T06:54:50.941Z,4.28
2022-10-04T06:55:53.214Z,3.72
2022-10-04T06:56:17.536Z,3.92
2022-10-04T06:58:19.513Z,4.00